METAR Analyzer

一覧表示

Hello, Guest. (Login)

YSSY/SYD  -  シドニー・キングスフォード・スミス

観測日時
2020-10-25 14:00 (UTC) (13分前)
気温
14
露点
14
湿数
0
相対湿度
100%
QNH
1015hPa
推定現地気圧
1014.3hPa
推定海面気圧
1015.0hPa
体感温度
-0.1
(無風時)
16.2
HI
14.1
気温前日比
-1
体感温度前日比
-2.9
HI前日比
-0.9
水平視程
4500m
鉛直視程
データなし
雲底高度
1200ft AGL / 一時 800ft AGL
V/I
SVMC (SVFR)
RVR
No RVR data
卓越風
29kt from 160°
ガスト
39kt
降水
弱いしゅう雨性の雨
降水 (一時)
中程度のしゅう雨性の雨
その他の天気
報告なし
その他の天気 (一時)
1400/1700 / 3000
少しの雲 @ 800ft AGL / 隙間のある雲 @ 1200ft AGL / 隙間のある雲 @ 2000ft AGL

YSSY 251400Z 16029G39KT 4500 -SHRA FEW008 BKN012 BKN020 14/14 Q1015 TEMPO 1400/1700 3000 SHRA BKN008 FM1630 MOD TURB BLW 5000FT

株式会社マネーパートナーズ 【Manepa Card】

NZAA/AKL  -  Auckland

観測日時
2020-10-25 14:00 (UTC) (13分前)
気温
15
露点
14
湿数
1
相対湿度
93.7%
QNH
1025hPa
推定現地気圧
1024.2hPa
推定海面気圧
1025.0hPa
体感温度
11.2
(無風時)
17
HI
15
気温前日比
-1
体感温度前日比
+2.6
HI前日比
-1.1
水平視程
>10000m
鉛直視程
データなし
雲底高度
4400ft AGL
V/I
VMC (VFR)
RVR
No RVR data
卓越風
2kt from 30°
ガスト
No gust
降水
報告なし
その他の天気
報告なし
隙間のある雲 @ 4400ft AGL

NZAA 251400Z AUTO 03002KT 9999 BKN044/// 15/14 Q1025 NOSIG

NZWN/WLG  -  Wellington

観測日時
2020-10-25 14:00 (UTC) (13分前)
気温
16
露点
14
湿数
2
相対湿度
87.9%
QNH
1020hPa
推定現地気圧
1018.4hPa
推定海面気圧
1020.0hPa
体感温度
4.6
(無風時)
17.8
HI
16
気温前日比
±0
体感温度前日比
±0
HI前日比
-0.1
水平視程
>10000m
鉛直視程
データなし
雲底高度
1200ft AGL
V/I
VMC (VFR)
RVR
No RVR data
卓越風
20kt from 340°
ガスト
No gust
降水
報告なし
その他の天気
報告なし
隙間のある雲 @ 1200ft AGL

NZWN 251400Z AUTO 34020KT 9999 BKN012/// 16/14 Q1020 NOSIG

NZCH/CHC  -  Christchurch

観測日時
2020-10-25 14:00 (UTC) (13分前)
気温
14
露点
11
湿数
3
相対湿度
82.1%
QNH
1013hPa
推定現地気圧
1008.6hPa
推定海面気圧
1013.0hPa
体感温度
3
(無風時)
16
HI
13.6
気温前日比
+7
体感温度前日比
+2.7
HI前日比
+7.4
水平視程
>10000m
鉛直視程
データなし
雲底高度
No dense clouds
V/I
VMC (VFR)
RVR
No RVR data
卓越風
14kt from 200°
ガスト
No gust
降水
報告なし
その他の天気
報告なし
目立った雲なし

NZCH 251400Z AUTO 20014KT 9999 NCD 14/11 Q1013 NOSIG

5.1msec